createdAt,value
2018-11-22T00:01:55.483Z,44.03
2018-11-22T00:04:43.962Z,41.83
2018-11-22T00:07:32.526Z,45.83
2018-11-22T00:10:21.360Z,43.60
2018-11-22T00:13:09.701Z,46.87
2018-11-22T00:15:58.160Z,43.70
2018-11-22T00:18:46.607Z,46.67
2018-11-22T00:21:35.195Z,46.27
2018-11-22T00:24:23.402Z,51.97
2018-11-22T00:27:11.818Z,50.83
2018-11-22T00:30:00.161Z,47.67
2018-11-22T00:32:48.616Z,48.70
2018-11-22T00:35:36.941Z,51.57
2018-11-22T00:38:25.380Z,54.30
2018-11-22T00:40:54.294Z,51.00
2018-11-22T00:43:35.943Z,51.13
2018-11-22T00:46:17.844Z,52.33
2018-11-22T00:48:58.920Z,52.83
2018-11-22T00:51:40.746Z,54.10
2018-11-22T00:54:21.829Z,53.00
2018-11-22T00:57:03.522Z,51.33
2018-11-22T00:59:45.127Z,48.17
2018-11-22T01:02:14.200Z,54.80
2018-11-22T01:05:02.628Z,50.30
2018-11-22T01:07:50.985Z,55.40
2018-11-22T01:10:39.392Z,53.73
2018-11-22T01:13:27.718Z,51.23
2018-11-22T01:16:16.290Z,52.07
2018-11-22T01:19:04.985Z,51.73
2018-11-22T01:21:34.305Z,51.77
2018-11-22T01:24:22.702Z,49.73
2018-11-22T01:27:11.070Z,51.93
2018-11-22T01:29:59.403Z,52.90
2018-11-22T01:32:48.838Z,50.77
2018-11-22T01:35:37.204Z,49.73
2018-11-22T01:38:25.521Z,51.00
2018-11-22T01:41:13.836Z,48.40
2018-11-22T01:44:02.303Z,50.53
2018-11-22T01:46:50.637Z,54.80
2018-11-22T01:49:39.055Z,52.33
2018-11-22T01:52:27.298Z,54.03
2018-11-22T01:55:34.717Z,52.30
2018-11-22T01:58:23.099Z,48.90
2018-11-22T02:01:11.443Z,53.07
2018-11-22T02:04:00.043Z,54.07
2018-11-22T02:06:48.441Z,51.93
2018-11-22T02:09:36.763Z,51.93
2018-11-22T02:12:25.134Z,51.07
2018-11-22T02:19:17.133Z,51.50
2018-11-22T02:22:05.492Z,53.63
2018-11-22T02:24:53.932Z,54.23
2018-11-22T02:27:42.503Z,55.33
2018-11-22T02:30:16.641Z,52.33
2018-11-22T02:33:05.216Z,51.87
2018-11-22T02:35:53.640Z,54.97
2018-11-22T02:38:42.022Z,53.83
2018-11-22T02:41:11.124Z,53.87
2018-11-22T02:47:12.556Z,54.77
2018-11-22T02:50:00.976Z,56.50
2018-11-22T02:52:49.757Z,55.17
2018-11-22T02:55:38.082Z,56.77
2018-11-22T02:58:26.418Z,53.13
2018-11-22T03:01:14.849Z,49.93
2018-11-22T03:04:03.279Z,49.67
2018-11-22T03:06:51.636Z,50.33
2018-11-22T03:09:39.937Z,53.57
2018-11-22T03:12:28.403Z,51.03
2018-11-22T03:15:16.769Z,50.87
2018-11-22T03:18:05.361Z,49.87
2018-11-22T03:20:53.709Z,51.13
2018-11-22T03:23:42.104Z,50.67
2018-11-22T03:26:30.419Z,55.60
2018-11-22T03:28:59.951Z,53.93
2018-11-22T03:31:48.303Z,50.20
2018-11-22T03:34:36.643Z,49.43
2018-11-22T03:37:25.038Z,51.47
2018-11-22T03:40:17.638Z,52.80
2018-11-22T03:42:59.457Z,48.57
2018-11-22T03:45:40.251Z,51.80
2018-11-22T03:48:22.035Z,51.87
2018-11-22T03:51:03.263Z,51.83
2018-11-22T03:53:44.815Z,47.23
2018-11-22T03:56:25.797Z,49.53
2018-11-22T03:58:55.091Z,52.70
2018-11-22T04:01:43.541Z,51.67
2018-11-22T04:04:32.148Z,46.17
2018-11-22T04:07:20.508Z,51.03
2018-11-22T04:10:09.823Z,47.30
2018-11-22T04:12:58.232Z,48.57
2018-11-22T04:15:46.690Z,51.77
2018-11-22T04:18:35.098Z,51.07
2018-11-22T04:21:23.445Z,48.33
2018-11-22T04:24:12.060Z,49.40
2018-11-22T04:27:01.098Z,46.93
2018-11-22T04:29:48.886Z,52.00
2018-11-22T04:32:37.185Z,48.40
2018-11-22T04:35:25.853Z,48.60
2018-11-22T04:37:54.883Z,46.30
2018-11-22T04:40:43.589Z,49.80
2018-11-22T04:43:12.645Z,47.43
2018-11-22T04:46:01.167Z,48.27
2018-11-22T04:48:49.567Z,44.80
2018-11-22T04:51:37.994Z,47.37
2018-11-22T04:54:26.411Z,46.33
2018-11-22T04:57:14.722Z,46.20
2018-11-22T05:00:03.294Z,45.03
2018-11-22T05:02:32.433Z,45.93
2018-11-22T05:05:22.169Z,43.40
2018-11-22T05:08:10.517Z,44.67
2018-11-22T05:10:39.507Z,45.00
2018-11-22T05:13:27.887Z,47.00
2018-11-22T05:16:16.259Z,43.53
2018-11-22T05:19:04.602Z,43.63
2018-11-22T05:21:53.023Z,46.50
2018-11-22T05:24:41.365Z,45.90
2018-11-22T05:27:29.764Z,44.20
2018-11-22T05:30:19.829Z,46.13
2018-11-22T05:32:48.952Z,48.23
2018-11-22T05:35:37.289Z,44.40
2018-11-22T05:38:25.735Z,49.63
2018-11-22T05:41:14.108Z,47.00
2018-11-22T05:43:43.381Z,51.80
2018-11-22T05:46:31.821Z,48.60
2018-11-22T05:49:00.871Z,48.30
2018-11-22T05:51:29.867Z,50.40
2018-11-22T05:54:18.301Z,49.37
2018-11-22T05:57:06.732Z,54.23
2018-11-22T05:59:35.748Z,51.23
2018-11-22T06:02:24.406Z,48.33
2018-11-22T06:05:13.372Z,53.10
2018-11-22T06:08:01.936Z,51.00
2018-11-22T06:10:32.571Z,51.50
2018-11-22T06:13:20.968Z,50.93
2018-11-22T06:16:09.311Z,50.30
2018-11-22T06:18:38.265Z,51.43
2018-11-22T06:21:07.361Z,53.73
2018-11-22T06:23:55.803Z,51.93
2018-11-22T06:26:44.162Z,52.13
2018-11-22T06:29:32.600Z,52.30
2018-11-22T06:32:21.133Z,51.03
2018-11-22T06:35:09.868Z,46.27
2018-11-22T06:37:39.071Z,51.07
2018-11-22T06:40:27.409Z,53.50
2018-11-22T06:43:08.687Z,49.50
2018-11-22T06:45:49.515Z,54.07
2018-11-22T06:48:18.780Z,55.90
2018-11-22T06:51:07.125Z,51.70
2018-11-22T06:53:55.449Z,52.53
2018-11-22T06:56:43.784Z,53.07
2018-11-22T06:59:13.047Z,55.10
2018-11-22T07:04:55.835Z,53.17
2018-11-22T07:07:44.260Z,52.93
2018-11-22T07:10:32.639Z,52.67
2018-11-22T07:13:02.146Z,48.43
2018-11-22T07:15:50.471Z,51.20
2018-11-22T07:18:38.795Z,46.37
2018-11-22T07:21:27.231Z,50.07
2018-11-22T07:24:15.722Z,47.83
2018-11-22T07:27:04.090Z,49.23
2018-11-22T07:29:52.452Z,50.37
2018-11-22T07:32:40.939Z,45.93
2018-11-22T07:35:31.016Z,43.67
2018-11-22T07:38:19.440Z,50.23
2018-11-22T07:40:48.474Z,48.83
2018-11-22T07:47:41.277Z,44.10
2018-11-22T07:52:59.401Z,43.53
2018-11-22T07:55:47.754Z,42.97
2018-11-22T07:58:36.119Z,46.00
2018-11-22T08:01:24.437Z,44.37
2018-11-22T08:03:53.402Z,45.13
2018-11-22T08:06:41.770Z,46.50
2018-11-22T08:09:30.380Z,45.13
2018-11-22T08:12:25.768Z,42.53
2018-11-22T08:14:47.867Z,41.53
2018-11-22T08:17:16.858Z,42.07
2018-11-22T08:19:45.830Z,41.73
2018-11-22T08:22:34.138Z,39.77
2018-11-22T08:25:03.617Z,44.93
2018-11-22T08:27:52.464Z,41.40
2018-11-22T08:30:22.344Z,41.13
2018-11-22T08:33:10.654Z,44.57
2018-11-22T08:35:39.608Z,42.87
2018-11-22T08:38:27.932Z,41.30
2018-11-22T08:41:16.299Z,41.93
2018-11-22T08:43:45.283Z,41.63
2018-11-22T08:46:33.680Z,38.70
2018-11-22T08:49:21.981Z,42.20
2018-11-22T08:52:10.378Z,42.50
2018-11-22T08:54:58.713Z,41.10
2018-11-22T08:57:47.115Z,39.00
2018-11-22T09:00:17.411Z,38.30
2018-11-22T09:03:05.778Z,39.63
2018-11-22T09:05:54.126Z,40.97
2018-11-22T09:08:23.109Z,40.53
2018-11-22T09:14:00.937Z,39.40
2018-11-22T09:16:29.958Z,39.23
2018-11-22T09:22:48.826Z,38.47
2018-11-22T09:25:37.204Z,38.10
2018-11-22T09:28:25.640Z,43.40
2018-11-22T09:34:44.568Z,39.20
2018-11-22T09:37:32.968Z,39.07
2018-11-22T09:40:22.955Z,41.03
2018-11-22T09:43:04.661Z,37.60
2018-11-22T09:45:45.642Z,37.33
2018-11-22T09:48:27.422Z,36.87
2018-11-22T09:51:08.655Z,40.03
2018-11-22T09:53:49.984Z,37.60
2018-11-22T09:56:31.425Z,39.47
2018-11-22T09:59:12.467Z,38.53
2018-11-22T10:01:41.501Z,39.37
2018-11-22T10:04:10.683Z,38.40
2018-11-22T10:06:39.777Z,37.37
2018-11-22T10:12:40.158Z,40.00
2018-11-22T10:15:30.188Z,38.37
2018-11-22T10:18:18.769Z,40.87
2018-11-22T10:21:07.138Z,39.33
2018-11-22T10:23:55.683Z,39.37
2018-11-22T10:26:43.460Z,35.00
2018-11-22T10:29:31.906Z,34.90
2018-11-22T10:32:20.172Z,36.50
2018-11-22T10:35:09.186Z,34.83
2018-11-22T10:37:38.184Z,30.80
2018-11-22T10:40:26.810Z,32.80
2018-11-22T10:43:15.236Z,34.90
2018-11-22T10:46:03.590Z,32.57
2018-11-22T10:48:52.021Z,31.93
2018-11-22T10:51:40.361Z,31.23
2018-11-22T10:54:28.765Z,29.40
2018-11-22T10:57:17.080Z,30.23
2018-11-22T11:00:07.910Z,34.13
2018-11-22T11:02:55.935Z,30.13
2018-11-22T11:06:03.383Z,31.63
2018-11-22T11:08:51.731Z,31.83
2018-11-22T11:11:40.111Z,32.47
2018-11-22T11:14:09.162Z,30.80
2018-11-22T11:16:57.605Z,35.37
2018-11-22T11:19:45.954Z,32.27
2018-11-22T11:22:34.345Z,31.40
2018-11-22T11:25:22.756Z,31.20
2018-11-22T11:28:11.128Z,28.33
2018-11-22T11:30:40.102Z,34.00
2018-11-22T11:33:09.582Z,32.20
2018-11-22T11:35:57.967Z,32.03
2018-11-22T11:38:45.461Z,32.67
2018-11-22T11:41:33.854Z,30.23
2018-11-22T11:44:22.484Z,31.20
2018-11-22T11:47:10.833Z,32.07
2018-11-22T11:49:59.728Z,31.40
2018-11-22T11:52:48.056Z,31.47
2018-11-22T11:55:36.873Z,31.70
2018-11-22T11:58:25.250Z,31.27
2018-11-22T12:01:14.197Z,32.37
2018-11-22T12:03:43.302Z,31.63
2018-11-22T12:06:31.816Z,30.83
2018-11-22T12:09:20.103Z,31.27
2018-11-22T12:12:08.469Z,32.67
2018-11-22T12:19:00.669Z,31.53
2018-11-22T12:21:49.043Z,32.00
2018-11-22T12:24:18.127Z,33.87
2018-11-22T12:27:06.525Z,33.33
2018-11-22T12:29:54.904Z,29.87
2018-11-22T12:33:02.329Z,30.93
2018-11-22T12:36:09.766Z,32.37
2018-11-22T12:38:58.165Z,33.33
2018-11-22T12:41:46.574Z,35.27
2018-11-22T12:44:28.106Z,33.90
2018-11-22T12:47:09.404Z,35.83
2018-11-22T12:49:38.360Z,32.77
2018-11-22T12:52:26.776Z,34.13
2018-11-22T12:54:56.003Z,34.97
2018-11-22T12:57:44.469Z,36.17
2018-11-22T13:00:15.210Z,35.70
2018-11-22T13:02:44.505Z,33.23
2018-11-22T13:05:14.933Z,34.80
2018-11-22T13:08:03.398Z,33.00
2018-11-22T13:10:51.847Z,33.63
2018-11-22T13:13:40.250Z,36.37
2018-11-22T13:16:28.694Z,37.60
2018-11-22T13:19:17.486Z,34.93
2018-11-22T13:22:06.027Z,37.80
2018-11-22T13:24:54.437Z,35.47
2018-11-22T13:27:43.091Z,34.53
2018-11-22T13:30:31.519Z,35.07
2018-11-22T13:33:00.654Z,32.60
2018-11-22T13:35:49.030Z,34.87
2018-11-22T13:38:37.322Z,34.87
2018-11-22T13:41:25.685Z,34.83
2018-11-22T13:44:14.009Z,34.00
2018-11-22T13:47:02.559Z,36.33
2018-11-22T13:49:50.993Z,41.57
2018-11-22T13:52:39.387Z,36.20
2018-11-22T13:55:27.866Z,32.90
2018-11-22T13:57:59.351Z,36.33
2018-11-22T14:00:47.680Z,36.83
2018-11-22T14:03:36.146Z,37.27
2018-11-22T14:06:24.519Z,36.93
2018-11-22T14:09:12.934Z,36.97
2018-11-22T14:12:01.392Z,36.83
2018-11-22T14:14:49.754Z,37.93
2018-11-22T14:18:00.080Z,38.97
2018-11-22T14:20:48.475Z,33.10
2018-11-22T14:23:36.963Z,34.73
2018-11-22T14:26:25.329Z,35.50
2018-11-22T14:29:13.705Z,36.70
2018-11-22T14:31:42.890Z,39.60
2018-11-22T14:34:31.316Z,39.10
2018-11-22T14:37:19.753Z,37.80
2018-11-22T14:40:09.364Z,34.87
2018-11-22T14:42:58.054Z,37.63
2018-11-22T14:45:27.674Z,35.73
2018-11-22T14:48:16.094Z,36.13
2018-11-22T14:51:23.888Z,35.73
2018-11-22T14:54:12.298Z,35.77
2018-11-22T14:57:00.794Z,36.60
2018-11-22T14:59:49.251Z,35.93
2018-11-22T15:02:37.914Z,36.43
2018-11-22T15:05:26.367Z,33.70
2018-11-22T15:08:14.698Z,32.93
2018-11-22T15:11:03.039Z,39.43
2018-11-22T15:13:32.116Z,35.70
2018-11-22T15:16:20.456Z,37.57
2018-11-22T15:19:08.872Z,34.50
2018-11-22T15:21:57.206Z,37.80
2018-11-22T15:24:45.844Z,32.13
2018-11-22T15:27:34.187Z,34.57
2018-11-22T15:30:03.661Z,38.37
2018-11-22T15:32:52.060Z,33.60
2018-11-22T15:35:40.501Z,37.13
2018-11-22T15:38:28.892Z,36.23
2018-11-22T15:43:59.353Z,34.90
2018-11-22T15:46:40.928Z,36.47
2018-11-22T15:49:22.769Z,38.60
2018-11-22T15:51:51.759Z,41.17
2018-11-22T15:54:47.221Z,34.47
2018-11-22T15:57:35.798Z,37.60
2018-11-22T16:00:46.510Z,37.73
2018-11-22T16:03:15.458Z,40.50
2018-11-22T16:06:03.936Z,37.37
2018-11-22T16:08:52.255Z,34.87
2018-11-22T16:11:40.612Z,36.37
2018-11-22T16:14:28.973Z,36.90
2018-11-22T16:17:17.348Z,34.90
2018-11-22T16:20:06.258Z,34.73
2018-11-22T16:22:54.754Z,38.53
2018-11-22T16:25:43.050Z,37.13
2018-11-22T16:28:31.520Z,36.70
2018-11-22T16:31:19.863Z,35.90
2018-11-22T16:34:08.261Z,39.03
2018-11-22T16:40:11.863Z,41.77
2018-11-22T16:43:01.670Z,42.17
2018-11-22T16:45:50.049Z,44.10
2018-11-22T16:48:38.451Z,42.33
2018-11-22T16:51:26.762Z,40.87
2018-11-22T16:54:15.153Z,38.63
2018-11-22T16:57:03.673Z,37.73
2018-11-22T16:59:52.051Z,38.33
2018-11-22T17:02:40.394Z,42.17
2018-11-22T17:05:29.082Z,40.33
2018-11-22T17:08:17.437Z,38.93
2018-11-22T17:11:05.856Z,40.07
2018-11-22T17:13:54.190Z,39.77
2018-11-22T17:16:42.602Z,41.53
2018-11-22T17:19:31.105Z,37.33
2018-11-22T17:22:19.527Z,45.53
2018-11-22T17:24:48.830Z,38.23
2018-11-22T17:31:10.940Z,42.83
2018-11-22T17:33:59.346Z,39.23
2018-11-22T17:36:47.706Z,41.13
2018-11-22T17:39:36.150Z,37.80
2018-11-22T17:42:24.583Z,39.23
2018-11-22T17:45:14.414Z,35.93
2018-11-22T17:48:03.160Z,40.93
2018-11-22T17:50:51.529Z,41.90
2018-11-22T17:53:39.955Z,38.47
2018-11-22T17:56:28.346Z,40.30
2018-11-22T17:59:16.692Z,35.90
2018-11-22T18:01:45.723Z,41.57
2018-11-22T18:04:14.806Z,37.70
2018-11-22T18:07:03.241Z,39.57
2018-11-22T18:09:51.616Z,42.60
2018-11-22T18:12:40.378Z,38.63
2018-11-22T18:15:29.974Z,38.33
2018-11-22T18:18:18.389Z,39.50
2018-11-22T18:21:06.863Z,36.73
2018-11-22T18:23:55.255Z,38.57
2018-11-22T18:26:24.301Z,37.83
2018-11-22T18:29:12.651Z,38.50
2018-11-22T18:32:01.053Z,38.07
2018-11-22T18:34:49.433Z,38.77
2018-11-22T18:37:40.283Z,38.53
2018-11-22T18:40:30.198Z,36.70
2018-11-22T18:43:11.597Z,38.40
2018-11-22T18:45:52.482Z,40.37
2018-11-22T18:48:34.260Z,43.10
2018-11-22T18:51:15.835Z,42.27
2018-11-22T18:53:57.538Z,37.70
2018-11-22T18:56:26.720Z,37.80
2018-11-22T18:59:15.078Z,43.67
2018-11-22T19:02:03.449Z,41.87
2018-11-22T19:04:51.820Z,39.03
2018-11-22T19:07:40.850Z,37.90
2018-11-22T19:10:48.281Z,39.73
2018-11-22T19:13:36.694Z,40.53
2018-11-22T19:16:25.070Z,43.23
2018-11-22T19:19:13.479Z,38.67
2018-11-22T19:22:01.830Z,40.20
2018-11-22T19:24:50.200Z,39.67
2018-11-22T19:27:38.551Z,38.17
2018-11-22T19:30:37.007Z,44.23
2018-11-22T19:33:20.329Z,43.23
2018-11-22T19:36:08.770Z,38.50
2018-11-22T19:38:57.061Z,42.20
2018-11-22T19:41:45.461Z,40.10
2018-11-22T19:44:33.815Z,39.63
2018-11-22T19:47:03.025Z,41.30
2018-11-22T19:49:51.350Z,41.73
2018-11-22T19:52:39.730Z,42.60
2018-11-22T19:55:29.319Z,47.00
2018-11-22T19:58:18.244Z,41.17
2018-11-22T20:00:47.343Z,41.63
2018-11-22T20:03:35.738Z,40.63
2018-11-22T20:06:24.167Z,42.70
2018-11-22T20:09:12.654Z,39.27
2018-11-22T20:11:41.709Z,37.93
2018-11-22T20:14:30.025Z,41.17
2018-11-22T20:17:18.402Z,36.70
2018-11-22T20:20:07.913Z,36.77
2018-11-22T20:22:56.722Z,34.80
2018-11-22T20:25:45.192Z,36.03
2018-11-22T20:28:33.639Z,38.57
2018-11-22T20:31:21.992Z,38.80
2018-11-22T20:34:10.537Z,39.07
2018-11-22T20:36:58.919Z,37.47
2018-11-22T20:39:47.298Z,38.27
2018-11-22T20:42:16.683Z,33.47
2018-11-22T20:45:06.108Z,37.87
2018-11-22T20:48:13.618Z,38.57
2018-11-22T20:51:02.122Z,40.73
2018-11-22T20:53:31.299Z,37.07
2018-11-22T20:56:20.006Z,37.47
2018-11-22T20:58:48.890Z,33.57
2018-11-22T21:01:37.338Z,35.87
2018-11-22T21:04:25.937Z,35.73
2018-11-22T21:06:55.688Z,35.53
2018-11-22T21:09:43.818Z,36.90
2018-11-22T21:12:12.832Z,35.67
2018-11-22T21:15:01.253Z,34.87
2018-11-22T21:17:30.528Z,38.43
2018-11-22T21:20:20.858Z,41.93
2018-11-22T21:22:49.989Z,35.73
2018-11-22T21:25:38.559Z,38.57
2018-11-22T21:28:26.920Z,33.90
2018-11-22T21:30:56.109Z,32.90
2018-11-22T21:33:25.299Z,34.47
2018-11-22T21:36:13.720Z,34.20
2018-11-22T21:39:02.444Z,36.70
2018-11-22T21:44:51.030Z,33.50
2018-11-22T21:47:31.960Z,30.90
2018-11-22T21:50:14.595Z,34.27
2018-11-22T21:52:56.210Z,33.10
2018-11-22T21:55:38.139Z,32.03
2018-11-22T21:58:07.087Z,33.33
2018-11-22T22:00:55.550Z,33.13
2018-11-22T22:03:43.978Z,35.33
2018-11-22T22:06:32.410Z,33.50
2018-11-22T22:09:20.895Z,34.33
2018-11-22T22:11:49.991Z,35.57
2018-11-22T22:14:38.290Z,35.07
2018-11-22T22:17:26.887Z,34.63
2018-11-22T22:20:19.811Z,32.93
2018-11-22T22:23:13.247Z,35.03
2018-11-22T22:25:56.590Z,35.50
2018-11-22T22:28:44.928Z,33.57
2018-11-22T22:31:33.266Z,33.60
2018-11-22T22:34:21.862Z,38.67
2018-11-22T22:37:10.218Z,33.57
2018-11-22T22:40:03.580Z,34.70
2018-11-22T22:42:47.891Z,34.80
2018-11-22T22:45:36.260Z,29.57
2018-11-22T22:48:24.706Z,35.17
2018-11-22T22:51:13.207Z,34.10
2018-11-22T22:54:01.628Z,34.97
2018-11-22T22:56:50.692Z,30.63
2018-11-22T22:59:39.058Z,33.07
2018-11-22T23:02:27.510Z,32.17
2018-11-22T23:05:15.968Z,32.37
2018-11-22T23:08:06.875Z,33.63
2018-11-22T23:10:55.212Z,34.53
2018-11-22T23:13:43.619Z,35.83
2018-11-22T23:16:32.045Z,32.00
2018-11-22T23:19:20.485Z,32.47
2018-11-22T23:22:08.909Z,32.87
2018-11-22T23:24:37.954Z,32.40
2018-11-22T23:27:26.291Z,33.73
2018-11-22T23:30:19.076Z,34.27
2018-11-22T23:33:08.812Z,31.37
2018-11-22T23:35:57.153Z,33.77
2018-11-22T23:38:45.544Z,30.93
2018-11-22T23:41:14.591Z,32.20
2018-11-22T23:44:03.093Z,34.53
2018-11-22T23:46:51.491Z,34.63
2018-11-22T23:49:39.892Z,32.97
2018-11-22T23:52:09.068Z,33.53
2018-11-22T23:54:57.556Z,32.63
2018-11-22T23:57:46.076Z,36.37
